Flight Track Log - Related Links

Times and Time Zones

All times are in EDT time to prevent confusion due to time zone crossing. See the N833L flight status page for this flight to view local times or setup timezone preferences in your user account.

Time Position Orientation Groundspeed Altitude Reporting Facility
EDT Latitude Longitude Course Direction KTS MPH feet Rate Location/Type
Thu 06:12:50 AM 37.9578 -87.5047 156° South 102 117 2,400  Level Indianapolis Center
Thu 06:13:51 AM 37.9306 -87.4900 157° South 106 122 2,900 443 Climbing Indianapolis Center
Thu 06:14:52 AM 37.9000 -87.4756 160° South 110 127 3,300 446 Climbing Indianapolis Center
Thu 06:15:52 AM 37.8678 -87.4594 158° South 117 135 3,800 545 Climbing Indianapolis Center
Thu 06:16:53 AM 37.8347 -87.4442 160° South 123 142 4,400 595 Climbing Indianapolis Center
Thu 06:17:53 AM 37.8050 -87.4269 155° Southeast 120 138 5,000 595 Climbing Indianapolis Center
Thu 06:18:00 AM 37.8269 -87.3739 156° South  Level Estimated
Thu 06:18:54 AM 37.7758 -87.4136 160° South 114 131 5,600  Level Indianapolis Center
Thu 06:19:55 AM 37.7472 -87.3992 158° South 111 128 6,200 595 Climbing Indianapolis Center
Thu 06:20:55 AM 37.7178 -87.3850 159° South 113 130 6,800 397 Climbing Indianapolis Center
Thu 06:21:56 AM 37.6853 -87.3700 160° South 122 140 7,000 99 Climbing Indianapolis Center
Thu 06:22:56 AM 37.6475 -87.3511 158° South 139 160 7,000  Level Indianapolis Center
Thu 06:23:57 AM 37.6114 -87.3306 156° South 143 165 7,000  Level Indianapolis Center
Thu 06:24:58 AM 37.5753 -87.3133 159° South 140 161 7,000  Level Indianapolis Center
Thu 06:25:58 AM 37.5394 -87.2958 159° South 138 159 7,000  Level Indianapolis Center
Thu 06:26:59 AM 37.5022 -87.2783 160° South 142 163 7,000  Level Indianapolis Center
Thu 06:28:00 AM 37.4664 -87.2608 159° South 139 160 7,000  Level Indianapolis Center
Thu 06:29:00 AM 37.4306 -87.2428 158° South 139 160 7,000  Level Indianapolis Center
Thu 06:30:01 AM 37.3953 -87.2267 160° South 136 157 7,000  Level Indianapolis Center
Thu 06:31:01 AM 37.3592 -87.2067 156° South 139 160 7,000  Level Indianapolis Center
Thu 06:32:02 AM 37.3239 -87.1900 159° South 136 157 7,000  Level Indianapolis Center
Thu 06:33:03 AM 37.2892 -87.1733 159° South 135 155 7,000  Level Indianapolis Center
Thu 06:34:04 AM 37.2522 -87.1547 158° South 135 155 7,000  Level Indianapolis Center
Thu 06:35:04 AM 37.2164 -87.1392 161° South 135 155 7,000  Level Indianapolis Center
Thu 06:36:05 AM 37.1817 -87.1211 157° South 133 153 7,000  Level Indianapolis Center
Thu 06:37:06 AM 37.1461 -87.1033 158° South 135 155 7,000  Level Indianapolis Center
Thu 06:38:06 AM 37.1108 -87.0861 159° South 135 155 7,000  Level Indianapolis Center
Thu 06:39:07 AM 37.0750 -87.0692 159° South 137 158 7,000  Level Indianapolis Center
Thu 06:40:08 AM 37.0397 -87.0511 158° South 136 157 7,000  Level Indianapolis Center
Thu 06:41:08 AM 37.0036 -87.0336 159° South 139 160 7,000  Level Indianapolis Center
Thu 06:42:09 AM 36.9689 -87.0175 160° South 134 154 7,000 -45 Level Indianapolis Center
Thu 06:43:22 AM 36.9239 -86.9989 162° South 134 154 6,900 -45 Descending Memphis Center
Thu 06:44:22 AM 36.8858 -86.9797 158° South 134 154 6,900 31 Level Memphis Center
Thu 06:46:38 AM 36.8167 -86.9333 152° Southeast 137 158 7,000 31 Climbing Nashville TRACON
Thu 06:47:38 AM 36.7667 -86.9167 165° South 138 159 7,000  Level Nashville TRACON
Thu 06:48:38 AM 36.7333 -86.9000 158° South 140 161 7,000  Level Nashville TRACON
Thu 06:49:38 AM 36.7000 -86.8833 158° South 139 160 7,000  Level Nashville TRACON
Thu 06:50:38 AM 36.6667 -86.8667 158° South 139 160 7,000  Level Nashville TRACON
Thu 06:51:44 AM 36.6167 -86.8500 165° South 138 159 7,000  Level Nashville TRACON
Thu 06:52:44 AM 36.5833 -86.8333 158° South 138 159 7,000  Level Nashville TRACON
Thu 06:53:44 AM 36.5500 -86.8167 158° South 141 162 7,000  Level Nashville TRACON
Thu 06:54:38 AM 36.5167 -86.8000 158° South 140 161 7,000  Level Nashville TRACON
Thu 06:55:38 AM 36.4833 -86.7833 158° South 138 159 7,000  Level Nashville TRACON
Thu 06:56:38 AM 36.4500 -86.7667 158° South 140 161 7,000  Level Nashville TRACON
Thu 06:57:38 AM 36.4167 -86.7500 158° South 141 162 7,000  Level Nashville TRACON
Thu 06:58:44 AM 36.3667 -86.7333 165° South 141 162 7,000  Level Nashville TRACON
Thu 06:59:44 AM 36.3333 -86.7167 158° South 140 161 7,000  Level Nashville TRACON
Thu 07:00:44 AM 36.3000 -86.7000 158° South 139 160 7,000  Level Nashville TRACON
Thu 07:01:44 AM 36.2667 -86.6667 141° Southeast 139 160 7,000  Level Nashville TRACON
Thu 07:02:38 AM 36.2333 -86.6667 180° South 140 161 7,000  Level Nashville TRACON
Thu 07:03:38 AM 36.2000 -86.6500 158° South 138 159 7,000  Level Nashville TRACON
Thu 07:04:38 AM 36.1667 -86.6333 158° South 137 158 7,000  Level Nashville TRACON
Thu 07:05:38 AM 36.1167 -86.6167 165° South 136 157 7,000  Level Nashville TRACON
Thu 07:06:38 AM 36.0833 -86.5833 141° Southeast 137 158 7,000  Level Nashville TRACON
Thu 07:07:38 AM 36.0500 -86.5667 158° South 137 158 7,000  Level Nashville TRACON
Thu 07:08:38 AM 36.0167 -86.5500 158° South 137 158 7,000  Level Nashville TRACON
Thu 07:09:39 AM 35.9833 -86.5333 158° South 138 159 7,000  Level Nashville TRACON
Thu 07:10:39 AM 35.9500 -86.5167 158° South 138 159 7,000  Level Nashville TRACON
Thu 07:11:39 AM 35.9167 -86.5000 158° South 137 158 7,000  Level Nashville TRACON
Thu 07:12:45 AM 35.8667 -86.4833 165° South 138 159 7,000  Level Nashville TRACON
Thu 07:13:39 AM 35.8333 -86.4667 158° South 139 160 7,000  Level Nashville TRACON
Thu 07:14:43 AM 35.8031 -86.4564 165° South 152 175 7,000  Level Memphis Center
Thu 07:15:43 AM 35.7631 -86.4378 159° South 147 169 7,000  Level Memphis Center
Thu 07:16:43 AM 35.7269 -86.4214 160° South 142 163 7,000  Level Memphis Center
Thu 07:17:43 AM 35.6911 -86.4053 160° South 142 163 7,000  Level Memphis Center
Thu 07:18:43 AM 35.6550 -86.3867 157° South 142 163 7,000  Level Memphis Center
Thu 07:19:44 AM 35.6189 -86.3706 160° South 137 158 7,000  Level Memphis Center
Thu 07:20:43 AM 35.5811 -86.3544 161° South 137 158 7,000  Level Memphis Center
Thu 07:21:43 AM 35.5469 -86.3356 156° South 137 158 7,000  Level Memphis Center
Thu 07:22:43 AM 35.5111 -86.3194 160° South 132 152 7,000  Level Memphis Center
Thu 07:23:43 AM 35.4769 -86.3008 156° South 132 152 7,000  Level Memphis Center
Thu 07:24:43 AM 35.4392 -86.2875 164° South 137 158 7,000  Level Memphis Center
Thu 07:25:43 AM 35.4053 -86.2711 158° South 137 158 7,000  Level Memphis Center
Thu 07:26:43 AM 35.3692 -86.2550 160° South 137 158 7,000  Level Memphis Center
Thu 07:27:43 AM 35.3331 -86.2392 160° South 137 158 7,000  Level Memphis Center
Thu 07:28:43 AM 35.2992 -86.2178 153° Southeast 137 158 7,000  Level Memphis Center
Thu 07:29:43 AM 35.2589 -86.2019 162° South 142 163 7,000  Level Memphis Center
Thu 07:30:43 AM 35.2231 -86.1861 160° South 142 163 7,000  Level Memphis Center
Thu 07:31:43 AM 35.1869 -86.1700 160° South 147 169 7,000  Level Memphis Center
Thu 07:32:43 AM 35.1467 -86.1517 160° South 147 169 7,000  Level Memphis Center
Thu 07:33:43 AM 35.1106 -86.1358 160° South 147 169 7,000  Level Memphis Center
Thu 07:34:43 AM 35.0767 -86.1172 156° South 147 169 7,000  Level Memphis Center
Thu 07:35:43 AM 35.0386 -86.1014 161° South 147 169 7,000  Level Memphis Center
Thu 07:36:43 AM 35.0003 -86.0831 159° South 147 169 7,000  Level Memphis Center
Thu 07:37:43 AM 34.9644 -86.0672 160° South 147 169 7,000  Level Memphis Center
Thu 07:38:44 AM 34.9300 -86.0503 158° South 149 171 7,000  Level Atlanta Center
Thu 07:39:44 AM 34.8906 -86.0342 161° South 138 159 7,000  Level Atlanta Center
Thu 07:40:44 AM 34.8531 -86.0181 161° South 138 159 7,000  Level Atlanta Center
Thu 07:41:44 AM 34.8181 -86.0022 160° South 138 159 7,000  Level Atlanta Center
Thu 07:42:44 AM 34.7786 -85.9808 156° South 143 165 7,000  Level Atlanta Center
Thu 07:43:44 AM 34.7414 -85.9650 161° South 148 170 7,000  Level Atlanta Center
Thu 07:44:44 AM 34.7061 -85.9514 162° South 148 170 7,000  Level Atlanta Center
Thu 07:45:44 AM 34.6708 -85.9331 157° South 148 170 7,000  Level Atlanta Center
Thu 07:46:44 AM 34.6314 -85.9144 159° South 148 170 7,000  Level Atlanta Center
Thu 07:47:44 AM 34.5942 -85.8986 161° South 148 170 7,000  Level Atlanta Center
Thu 07:48:44 AM 34.5589 -85.8825 159° South 148 170 7,000  Level Atlanta Center
Thu 07:49:44 AM 34.5217 -85.8642 158° South 148 170 7,000  Level Atlanta Center
Thu 07:50:44 AM 34.4844 -85.8481 160° South 148 170 7,000  Level Atlanta Center
Thu 07:51:44 AM 34.4492 -85.8322 160° South 148 170 7,000  Level Atlanta Center
Thu 07:52:44 AM 34.4117 -85.8164 161° South 148 170 7,000  Level Atlanta Center
Thu 07:53:44 AM 34.3764 -85.8006 160° South 148 170 7,000  Level Atlanta Center
Thu 07:54:44 AM 34.3392 -85.7822 158° South 148 170 7,000  Level Atlanta Center
Thu 07:55:44 AM 34.3061 -85.7664 158° South 143 165 7,000  Level Atlanta Center
Thu 07:56:44 AM 34.2686 -85.7506 161° South 142 163 7,000  Level Atlanta Center
Thu 07:57:44 AM 34.2314 -85.7347 161° South 142 163 7,000  Level Atlanta Center
Thu 07:58:44 AM 34.1961 -85.7189 160° South 140 161 7,000  Level Atlanta Center
Thu 07:59:44 AM 34.1608 -85.7033 160° South 133 153 7,000  Level Atlanta Center
Thu 08:00:44 AM 34.1256 -85.6850 157° South 133 153 7,000  Level Atlanta Center
Thu 08:01:44 AM 34.0903 -85.6692 160° South 138 159 7,000  Level Atlanta Center
Thu 08:02:44 AM 34.0467 -85.6533 163° South 143 165 7,000  Level Atlanta Center
Thu 08:03:44 AM 34.0114 -85.6353 157° South 148 170 7,000  Level Atlanta Center
Thu 08:04:44 AM 33.9719 -85.6194 162° South 147 169 7,000  Level Atlanta Center
Thu 08:05:44 AM 33.9408 -85.6039 157° South 146 168 7,000  Level Atlanta Center
Thu 08:06:44 AM 33.9036 -85.5881 161° South 141 162 7,000  Level Atlanta Center
Thu 08:07:44 AM 33.8683 -85.5725 160° South 146 168 7,000  Level Atlanta Center
Thu 08:08:44 AM 33.8331 -85.5569 160° South 140 161 7,000  Level Atlanta Center
Thu 08:09:44 AM 33.7975 -85.5411 160° South 146 168 7,000  Level Atlanta Center
Thu 08:10:44 AM 33.7622 -85.5256 160° South 146 168 7,000  Level Atlanta Center
Thu 08:11:44 AM 33.7269 -85.5075 157° South 146 168 7,000  Level Atlanta Center
Thu 08:12:44 AM 33.6897 -85.4919 161° South 146 168 7,000  Level Atlanta Center
Thu 08:13:44 AM 33.6564 -85.4789 162° South 146 168 7,000  Level Atlanta Center
Thu 08:14:44 AM 33.6233 -85.4633 159° South 141 162 7,000  Level Atlanta Center
Thu 08:15:44 AM 33.5881 -85.4478 160° South 147 169 7,000  Level Atlanta Center
Thu 08:16:44 AM 33.5506 -85.4322 161° South 147 169 7,000  Level Atlanta Center
Thu 08:17:44 AM 33.5153 -85.4142 157° South 142 163 7,000  Level Atlanta Center
Thu 08:18:44 AM 33.4778 -85.3986 161° South 147 169 7,000  Level Atlanta Center
Thu 08:19:44 AM 33.4425 -85.3806 157° South 147 169 7,000  Level Atlanta Center
Thu 08:20:44 AM 33.4011 -85.3625 160° South 142 163 7,000  Level Atlanta Center
Thu 08:21:44 AM 33.3636 -85.3497 164° South 142 163 7,000  Level Atlanta Center
Thu 08:22:44 AM 33.3261 -85.3292 155° Southeast 147 169 7,000  Level Atlanta Center
Thu 08:23:44 AM 33.2889 -85.3136 161° South 148 170 7,000  Level Atlanta Center
Thu 08:24:44 AM 33.2514 -85.3008 164° South 148 170 7,000  Level Atlanta Center
Thu 08:25:44 AM 33.2139 -85.2828 158° South 148 170 7,000  Level Atlanta Center
Thu 08:26:44 AM 33.1767 -85.2647 158° South 148 170 7,000  Level Atlanta Center
Thu 08:27:44 AM 33.1414 -85.2494 160° South 144 166 7,000  Level Atlanta Center
Thu 08:28:44 AM 33.1039 -85.2317 158° South 153 176 7,000  Level Atlanta Center
Thu 08:29:44 AM 33.0792 -85.1992 132° Southeast 133 153 7,000  Level Atlanta Center
Thu 08:30:44 AM 33.0544 -85.1689 134° Southeast 133 153 7,000  Level Atlanta Center
Thu 08:32:29 AM 33.0000 -85.1000 133° Southeast 139 160 7,000  Level Atlanta TRACON
Thu 08:33:29 AM 32.9833 -85.0667 121° Southeast 137 158 7,000  Level Atlanta TRACON
Thu 08:34:29 AM 32.9500 -85.0500 157° South 138 159 7,000  Level Atlanta TRACON
Thu 08:35:29 AM 32.9167 -85.0167 140° Southeast 138 159 7,000  Level Atlanta TRACON
Thu 08:36:29 AM 32.9000 -84.9833 121° Southeast 136 157 7,000  Level Atlanta TRACON
Thu 08:37:29 AM 32.8667 -84.9500 140° Southeast 137 158 7,000  Level Atlanta TRACON
Thu 08:38:29 AM 32.8500 -84.9167 121° Southeast 139 160 7,000  Level Atlanta TRACON
Thu 08:39:29 AM 32.8167 -84.8833 140° Southeast 139 160 7,000  Level Atlanta TRACON
Thu 08:40:29 AM 32.7833 -84.8500 140° Southeast 141 162 7,000  Level Atlanta TRACON
Thu 08:41:29 AM 32.7667 -84.8167 121° Southeast 138 159 7,000  Level Atlanta TRACON
Thu 08:42:29 AM 32.7333 -84.7833 140° Southeast 138 159 7,000  Level Atlanta TRACON
Thu 08:43:29 AM 32.7000 -84.7500 140° Southeast 137 158 7,000  Level Atlanta TRACON
Thu 08:44:29 AM 32.6833 -84.7167 121° Southeast 137 158 7,000  Level Atlanta TRACON
Thu 08:45:29 AM 32.6500 -84.6833 140° Southeast 137 158 7,000  Level Atlanta TRACON
Thu 08:46:29 AM 32.6333 -84.6500 121° Southeast 138 159 7,000 -50 Level Atlanta TRACON
Thu 08:47:29 AM 32.6000 -84.6333 157° South 139 160 6,900 -50 Descending Atlanta TRACON
Thu 08:48:29 AM 32.5667 -84.6000 140° Southeast 144 166 6,900  Level Atlanta TRACON
Thu 08:49:29 AM 32.5333 -84.6000 180° South 143 165 6,900 50 Level Atlanta TRACON
Thu 08:50:29 AM 32.4833 -84.5833 164° South 144 166 7,000  Climbing Atlanta TRACON
Thu 08:51:29 AM 32.4500 -84.5667 157° South 144 166 6,900 -24 Descending Atlanta TRACON
Thu 08:54:36 AM 32.3314 -84.5325 166° South 142 163 6,900  Level Jacksonville Center
Thu 08:55:36 AM 32.2961 -84.5172 160° South 142 163 6,900  Level Jacksonville Center
Thu 08:56:36 AM 32.2586 -84.5042 164° South 143 165 6,900 -50 Level Jacksonville Center
Thu 08:57:36 AM 32.2192 -84.4936 167° South 143 165 6,800  Descending Jacksonville Center
Thu 08:58:36 AM 32.1836 -84.4783 160° South 143 165 6,900 100 Climbing Jacksonville Center
Thu 08:59:36 AM 32.1442 -84.4678 167° South 143 165 7,000 50 Climbing Jacksonville Center
Thu 09:00:36 AM 32.1069 -84.4525 161° South 143 165 7,000  Level Jacksonville Center
Thu 09:01:36 AM 32.0672 -84.4394 164° South 143 165 7,000  Level Jacksonville Center
Thu 09:02:36 AM 32.0319 -84.4267 163° South 143 165 7,000  Level Jacksonville Center
Thu 09:03:36 AM 31.9925 -84.4114 162° South 143 165 7,000  Level Jacksonville Center
Thu 09:04:36 AM 31.9550 -84.3983 164° South 143 165 7,000  Level Jacksonville Center
Thu 09:05:36 AM 31.9156 -84.3856 165° South 143 165 7,000  Level Jacksonville Center
Thu 09:06:36 AM 31.8781 -84.3703 161° South 143 165 7,000  Level Jacksonville Center
Thu 09:07:36 AM 31.8408 -84.3600 167° South 143 165 7,000  Level Jacksonville Center
Thu 09:08:36 AM 31.8011 -84.3447 162° South 143 165 7,000  Level Jacksonville Center
Thu 09:09:36 AM 31.7639 -84.3317 163° South 143 165 7,000  Level Jacksonville Center
Thu 09:10:36 AM 31.7264 -84.3189 164° South 143 165 7,000  Level Jacksonville Center
Thu 09:11:36 AM 31.6869 -84.3039 162° South 143 165 7,000  Level Jacksonville Center
Thu 09:12:36 AM 31.6494 -84.2911 164° South 143 165 7,000  Level Jacksonville Center
Thu 09:13:36 AM 31.6119 -84.2733 158° South 143 165 7,000  Level Jacksonville Center
Thu 09:14:36 AM 31.5747 -84.2581 161° South 143 165 7,000  Level Jacksonville Center
Thu 09:15:36 AM 31.5372 -84.2406 158° South 143 165 7,000  Level Jacksonville Center
Thu 09:16:36 AM 31.4997 -84.2231 158° South 148 170 7,000  Level Jacksonville Center
Thu 09:17:36 AM 31.4644 -84.2053 157° South 148 170 7,000  Level Jacksonville Center
Thu 09:18:36 AM 31.4269 -84.1878 158° South 148 170 7,000  Level Jacksonville Center
Thu 09:19:36 AM 31.3897 -84.1728 161° South 148 170 7,000  Level Jacksonville Center
Thu 09:20:36 AM 31.3544 -84.1528 154° Southeast 148 170 7,000  Level Jacksonville Center
Thu 09:21:25 AM 31.3211 -84.1403 162° South 141 162 7,000  Level Jacksonville Center
Thu 09:22:36 AM 31.2817 -84.1203 157° South 148 170 7,000  Level Jacksonville Center
Thu 09:23:39 AM 31.2400 -84.1050 163° South 142 163 7,000  Level Jacksonville Center
Thu 09:24:36 AM 31.2067 -84.0853 153° Southeast 148 170 7,000  Level Jacksonville Center
Thu 09:25:36 AM 31.1714 -84.0703 160° South 148 170 7,000  Level Jacksonville Center
Thu 09:26:36 AM 31.1361 -84.0528 157° South 148 170 7,000  Level Jacksonville Center
Thu 09:27:36 AM 31.0986 -84.0353 158° South 148 170 7,000  Level Jacksonville Center
Thu 09:28:36 AM 31.0633 -84.0178 157° South 148 170 7,000  Level Jacksonville Center
Thu 09:29:36 AM 31.0239 -84.0028 162° South 148 170 7,000  Level Jacksonville Center
Thu 09:30:36 AM 30.9883 -83.9856 157° South 148 170 7,000  Level Jacksonville Center
Thu 09:31:36 AM 30.9511 -83.9681 158° South 141 162 7,000  Level Jacksonville Center
Thu 09:32:36 AM 30.9156 -83.9508 157° South 141 162 7,000  Level Jacksonville Center
Thu 09:33:36 AM 30.8783 -83.9333 158° South 141 162 7,000  Level Jacksonville Center
Thu 09:34:36 AM 30.8428 -83.9161 157° South 141 162 7,000  Level Jacksonville Center
Thu 09:35:36 AM 30.8033 -83.9011 162° South 146 168 7,000 -100 Level Jacksonville Center
Thu 09:36:36 AM 30.7658 -83.8814 156° South 146 168 6,800 -200 Descending Jacksonville Center
Thu 09:37:36 AM 30.7242 -83.8617 158° South 146 168 6,600 -250 Descending Jacksonville Center
Thu 09:38:36 AM 30.6847 -83.8444 159° South 151 174 6,300 -250 Descending Jacksonville Center
Thu 09:39:36 AM 30.6453 -83.8247 157° South 151 174 6,100 -250 Descending Jacksonville Center
Thu 09:40:36 AM 30.6036 -83.8072 160° South 151 174 5,800 -250 Descending Jacksonville Center
Thu 09:41:36 AM 30.5642 -83.7875 157° South 151 174 5,600 -250 Descending Jacksonville Center
Thu 09:42:36 AM 30.5203 -83.7656 157° South 151 174 5,300 -187 Descending Jacksonville Center
Thu 09:44:00 AM 30.4747 -83.7291 145° Southeast  Level FlightAware Approximate
Thu 09:44:49 AM 30.4436 -83.7022 145° Southeast 144 166 5,000  Level Jacksonville Center
Thu 09:45:49 AM 30.4144 -83.6803 147° Southeast 150 173 5,000  Level Jacksonville Center
Thu 09:46:49 AM 30.3811 -83.6536 145° Southeast 150 173 5,000  Level Jacksonville Center
Thu 09:47:49 AM 30.3500 -83.6292 146° Southeast 150 173 5,000  Level Jacksonville Center
Thu 09:48:49 AM 30.3167 -83.6047 148° Southeast 145 167 5,000  Level Jacksonville Center
Thu 09:49:49 AM 30.2875 -83.5806 144° Southeast 145 167 5,000  Level Jacksonville Center
Thu 09:50:49 AM 30.2564 -83.5564 146° Southeast 145 167 5,000  Level Jacksonville Center
Thu 09:51:49 AM 30.2231 -83.5297 145° Southeast 145 167 5,000  Level Jacksonville Center
Thu 09:52:49 AM 30.1919 -83.5078 149° Southeast 145 167 5,000  Level Jacksonville Center
Thu 09:53:49 AM 30.1586 -83.4836 148° Southeast 145 167 5,000  Level Jacksonville Center
Thu 09:54:49 AM 30.1275 -83.4594 146° Southeast 145 167 5,000  Level Jacksonville Center
Thu 09:55:49 AM 30.0964 -83.4328 143° Southeast 140 161 5,000  Level Jacksonville Center
Thu 09:56:49 AM 30.0650 -83.4111 149° Southeast 140 161 5,000  Level Jacksonville Center
Thu 09:57:49 AM 30.0317 -83.3869 148° Southeast 140 161 5,000  Level Jacksonville Center
Thu 09:58:48 AM 30.0006 -83.3603 143° Southeast 140 161 5,000  Level Jacksonville Center
Thu 09:59:48 AM 29.9672 -83.3361 148° Southeast 140 161 5,000  Level Jacksonville Center
Thu 10:00:49 AM 29.9358 -83.3119 146° Southeast 140 161 5,000  Level Jacksonville Center
Thu 10:01:49 AM 29.9047 -83.2881 146° Southeast 140 161 5,000  Level Jacksonville Center
Thu 10:02:49 AM 29.8736 -83.2614 143° Southeast 140 161 5,000  Level Jacksonville Center
Thu 10:03:49 AM 29.8400 -83.2375 148° Southeast 140 161 5,000  Level Jacksonville Center
Thu 10:04:49 AM 29.8067 -83.2108 145° Southeast 140 161 5,000  Level Jacksonville Center
Thu 10:05:49 AM 29.7756 -83.1869 146° Southeast 140 161 5,000 -50 Level Jacksonville Center
Thu 10:06:49 AM 29.7442 -83.1628 146° Southeast 140 161 4,900 -50 Descending Jacksonville Center
Thu 10:07:49 AM 29.7131 -83.1414 149° Southeast 140 161 4,900  Level Jacksonville Center
Thu 10:08:48 AM 29.6817 -83.1150 144° Southeast 140 161 4,900  Level Jacksonville Center
Thu 10:09:49 AM 29.6506 -83.0886 144° Southeast 140 161 4,900  Level Jacksonville Center
Thu 10:10:49 AM 29.6172 -83.0644 148° Southeast 140 161 4,900  Level Jacksonville Center
Thu 10:11:19 AM 29.5983 -83.0525 151° Southeast 137 158 4,900  Level Jacksonville Center
Thu 10:11:49 AM 29.5858 -83.0406 140° Southeast 140 161 4,900  Level Jacksonville Center
Thu 10:12:48 AM 29.5586 -83.0072 133° Southeast 140 161 4,900  Level Jacksonville Center
Thu 10:13:49 AM 29.5378 -82.9689 122° Southeast 140 161 4,900  Level Jacksonville Center
Thu 10:14:49 AM 29.5150 -82.9308 125° Southeast 145 167 4,900  Level Jacksonville Center
Thu 10:15:49 AM 29.4919 -82.8925 125° Southeast 145 167 4,900  Level Jacksonville Center
Thu 10:16:49 AM 29.4711 -82.8569 124° Southeast 145 167 4,900  Level Jacksonville Center
Thu 10:17:49 AM 29.4503 -82.8211 124° Southeast 145 167 4,900  Level Jacksonville Center
Thu 10:18:49 AM 29.4272 -82.7828 125° Southeast 145 167 4,900  Level Jacksonville Center
Thu 10:19:49 AM 29.4042 -82.7447 125° Southeast 145 167 4,900  Level Jacksonville Center
Thu 10:20:49 AM 29.3833 -82.7092 124° Southeast 145 167 4,900  Level Jacksonville Center
Thu 10:22:00 AM 29.3539 -82.6639 127° Southeast 140 161 4,900  Level Jacksonville Center
Thu 10:23:01 AM 29.3308 -82.6258 125° Southeast 140 161 4,900  Level Jacksonville Center
Thu 10:24:08 AM 29.3058 -82.5853 125° Southeast 140 161 4,900  Level Jacksonville Center
Thu 10:25:09 AM 29.2828 -82.5475 125° Southeast 141 162 4,900  Level Jacksonville Center
Thu 10:26:09 AM 29.2617 -82.5069 121° Southeast 142 163 4,900  Level Jacksonville Center
Thu 10:27:11 AM 29.2386 -82.4714 127° Southeast 140 161 4,900  Level Jacksonville Center
Thu 10:28:12 AM 29.2178 -82.4333 122° Southeast 140 161 4,900  Level Jacksonville Center
Thu 10:29:06 AM 29.1947 -82.4003 129° Southeast 140 161 4,900  Level Jacksonville Center
Thu 10:30:07 AM 29.1736 -82.3647 124° Southeast 141 162 4,900  Level Jacksonville Center
Thu 10:31:08 AM 29.1506 -82.3292 127° Southeast 140 161 4,900  Level Jacksonville Center
Thu 10:32:09 AM 29.1294 -82.2911 122° Southeast 141 162 4,900  Level Jacksonville Center
Thu 10:33:10 AM 29.1064 -82.2508 123° Southeast 136 157 4,900  Level Jacksonville Center
Thu 10:34:11 AM 29.0853 -82.2153 124° Southeast 137 158 4,900  Level Jacksonville Center
Thu 10:35:12 AM 29.0619 -82.1800 127° Southeast 138 159 4,900  Level Jacksonville Center
Thu 10:36:07 AM 29.0431 -82.1467 123° Southeast 139 160 4,900  Level Jacksonville Center
Thu 10:37:08 AM 29.0178 -82.1114 129° Southeast 139 160 4,900  Level Jacksonville Center
Thu 10:38:09 AM 28.9947 -82.0711 123° Southeast 140 161 4,900 34 Level Jacksonville Center
Thu 10:40:04 AM 28.9500 -82.0000 126° Southeast 138 159 5,000 33 Climbing Orlando TRACON
Thu 10:41:10 AM 28.9333 -81.9667 120° Southeast 140 161 5,000  Level Orlando TRACON
Thu 10:42:16 AM 28.9000 -81.9167 127° Southeast 140 161 5,000  Level Orlando TRACON
Thu 10:43:10 AM 28.8833 -81.8833 120° Southeast 140 161 5,000  Level Orlando TRACON
Thu 10:44:10 AM 28.8667 -81.8500 120° Southeast 141 162 5,000  Level Orlando TRACON
Thu 10:45:11 AM 28.8333 -81.8167 139° Southeast 141 162 5,000 -198 Level Orlando TRACON
Thu 10:46:11 AM 28.8167 -81.7833 120° Southeast 145 167 4,600 -421 Descending Orlando TRACON
Thu 10:47:05 AM 28.7833 -81.7500 139° Southeast 159 183 4,200 -368 Descending Orlando TRACON
Thu 10:48:05 AM 28.7500 -81.7167 139° Southeast 154 177 3,900 -100 Descending Orlando TRACON
Thu 10:49:05 AM 28.7333 -81.6833 120° Southeast 133 153 4,000 50 Climbing Orlando TRACON
Thu 10:50:06 AM 28.7000 -81.6667 156° South 124 143 4,000 -47 Level Orlando TRACON
Thu 10:51:12 AM 28.6833 -81.6333 120° Southeast 127 146 3,900 -250 Descending Orlando TRACON
Thu 10:52:06 AM 28.6500 -81.6000 139° Southeast 140 161 3,500 -474 Descending Orlando TRACON
Thu 10:53:06 AM 28.6167 -81.5667 139° Southeast 155 178 3,000 -500 Descending Orlando TRACON
Thu 10:54:06 AM 28.6000 -81.5333 120° Southeast 149 171 2,500 -500 Descending Orlando TRACON
Thu 10:55:06 AM 28.5667 -81.5000 139° Southeast 139 160 2,000 -238 Descending Orlando TRACON
Thu 10:56:12 AM 28.5333 -81.4667 139° Southeast 132 152 2,000 -248 Level Orlando TRACON
Thu 10:57:07 AM 28.5167 -81.4333 120° Southeast 130 150 1,500 -496 Descending Orlando TRACON
Thu 10:58:13 AM 28.5167 -81.3833 90° East 136 157 1,000 -476 Descending Orlando TRACON
Thu 10:59:13 AM 28.5333 -81.3667 41° Northeast 100 115 500 -500 Descending Orlando TRACON
Thu 11:01:00 AM 28.5455 -81.3329 124° Southeast  Level Estimated
Thu 11:08:00 AM 28.5455 -81.3329 124° Southeast  Level Estimated
Thu 11:09:00 AM 28.5455 -81.3329 124° Southeast  Level Estimated
Thu 11:10:00 AM 28.5455 -81.3329 124° Southeast  Level Estimated

Login

Don't have an account? Register now (free) for customized features, flight alerts, and more!